Lucille Brooks — WDG5458 — position and weather

sailwx.info

Track history (hours):
 
Tides and Currents Weather Stations Pressure Air Temp Water Temp Dewpoint Dewpoint Depression Visibility Wind Speed Wind Dir Waves Ship Positions

Lucille Brooks

Owner: Kirby Inland Marine, LP, Houston, TX. More information available from US FCC via Universal Licensing System and Coast Guard Vessel Documentation Center.

Last reported at 2018-Jan-06 15:30 UTC. Time now 2018-Jan-19 07:52 UTC.
Position N 29°49' W 093°59'.
Warning: this ship's position is 12 days out of date.

Length 202 m; draft 3 m.

Type: . MMSI: 367024990.

Date/timePositionNaut miles runAvg speedWind from/ knotsBaromVisibWave heightAir tempDewpointWater temp
2018-Jan-06 15:30N 29°49' W 093°59'50 1.5
2018-Jan-05 06:31N 29°29' W 094°52'0 4.8
2018-Jan-05 06:26N 29°29' W 094°52'2 5.1
2018-Jan-05 06:00N 29°31' W 094°53'2 4.9
2018-Jan-05 05:30N 29°33' W 094°55'2 4.8
2018-Jan-05 05:00N 29°35' W 094°56'2 5.0
2018-Jan-05 04:30N 29°38' W 094°58'2 5.0
2018-Jan-05 04:00N 29°40' W 094°59'2 4.6
2018-Jan-05 03:30N 29°42' W 094°60'2 3.9
2018-Jan-05 02:56N 29°44' W 095°02'2 4.4
2018-Jan-05 02:25N 29°45' W 095°04'3 2.5
2018-Jan-05 01:21N 29°44' W 095°07'2 4.8
2018-Jan-05 01:00N 29°44' W 095°09'3 4.5
2018-Jan-05 00:25N 29°45' W 095°12'0 0.0
2018-Jan-03 16:01N 29°44' W 095°12'0 3.1
2018-Jan-03 15:59N 29°44' W 095°12'1 2.6
2018-Jan-03 15:27N 29°45' W 095°10'0 0.0
2018-Jan-03 14:59N 29°45' W 095°10'0 0.0
2018-Jan-03 14:27N 29°45' W 095°10'0 0.0
2018-Jan-03 13:57N 29°45' W 095°10'0 0.0
2018-Jan-03 13:30N 29°45' W 095°10'0 0.0
2018-Jan-03 13:00N 29°45' W 095°10'0 0.0
2018-Jan-03 12:30N 29°45' W 095°10'0 0.0
2018-Jan-03 11:51N 29°45' W 095°10'0 0.0
2018-Jan-03 11:21N 29°45' W 095°10'0 0.0
2018-Jan-03 11:00N 29°45' W 095°10'0 0.0
2018-Jan-03 10:15N 29°45' W 095°10'0 0.0
2018-Jan-03 09:54N 29°45' W 095°10'0 0.0
2018-Jan-03 09:24N 29°45' W 095°10'0 0.0
2018-Jan-03 08:51N 29°45' W 095°10'0 0.0
2018-Jan-03 08:09N 29°45' W 095°10'0 0.0
2018-Jan-03 08:00N 29°45' W 095°10'0 0.0
2018-Jan-03 07:27N 29°45' W 095°10'0 0.0
2018-Jan-03 06:57N 29°45' W 095°10'0 0.0
2018-Jan-03 06:21N 29°45' W 095°10'0 0.0
2018-Jan-03 05:45N 29°45' W 095°10'0 0.0
2018-Jan-03 05:09N 29°45' W 095°10'0 0.0
2018-Jan-03 05:00N 29°45' W 095°10'0 0.0
2018-Jan-03 04:30N 29°45' W 095°10'0 0.0
2018-Jan-03 03:54N 29°45' W 095°10'0 0.0
2018-Jan-03 03:30N 29°45' W 095°10'0 0.0
2018-Jan-03 03:00N 29°45' W 095°10'0 0.0
2018-Jan-03 02:27N 29°45' W 095°10'0 0.0
2018-Jan-03 02:00N 29°45' W 095°10'0 0.0
2018-Jan-03 01:21N 29°45' W 095°10'0 0.0
2018-Jan-03 00:54N 29°45' W 095°10'0 0.0
2018-Jan-03 00:27N 29°45' W 095°10'0 0.0
2018-Jan-03 00:00N 29°45' W 095°10'0 0.0
2018-Jan-02 23:15N 29°45' W 095°10'0 0.0
2018-Jan-02 22:48N 29°45' W 095°10'0 0.0
2018-Jan-02 22:21N 29°45' W 095°10'0 0.0
2018-Jan-02 21:45N 29°45' W 095°10'0 0.0
2018-Jan-02 17:09N 29°45' W 095°10'0 0.0
2018-Jan-02 16:45N 29°45' W 095°10'0 0.0
2018-Jan-02 15:54N 29°45' W 095°10'0 0.0
2018-Jan-02 15:24N 29°45' W 095°10'0 0.0
2018-Jan-02 14:42N 29°45' W 095°10'0 0.0
2018-Jan-02 14:30N 29°45' W 095°10'0 0.0
2018-Jan-02 14:00N 29°45' W 095°10'0 0.0
2018-Jan-02 13:27N 29°45' W 095°10'0 0.0
2018-Jan-02 12:57N 29°45' W 095°10'0 0.0
2018-Jan-02 12:30N 29°45' W 095°10'0 0.0
2018-Jan-02 12:00N 29°45' W 095°10'0 0.0
2018-Jan-02 11:30N 29°45' W 095°10'0 0.0
2018-Jan-02 11:00N 29°45' W 095°10'0 0.0
2018-Jan-02 10:00N 29°45' W 095°10'0 0.0
2018-Jan-02 09:27N 29°45' W 095°10'0 0.0
2018-Jan-02 07:54N 29°45' W 095°10'0 0.0
2018-Jan-02 05:45N 29°45' W 095°10'0 0.0
2018-Jan-02 04:30N 29°45' W 095°10'0 0.0
2018-Jan-02 02:27N 29°45' W 095°10'0 0.0
2018-Jan-02 01:54N 29°45' W 095°10'0 0.0
2018-Jan-02 01:21N 29°45' W 095°10'0 0.0
2018-Jan-02 00:33N 29°45' W 095°10'0 0.0
2018-Jan-02 00:30N 29°45' W 095°10'0 0.0
2018-Jan-01 23:48N 29°45' W 095°10'0 0.0
2018-Jan-01 23:30N 29°45' W 095°10'0 0.0
2018-Jan-01 20:21N 29°45' W 095°10'0 0.0
2018-Jan-01 19:57N 29°45' W 095°10'0 0.0
2018-Jan-01 19:30N 29°45' W 095°10'0 0.0
2018-Jan-01 19:00N 29°45' W 095°10'0 0.0
2018-Jan-01 18:30N 29°45' W 095°10'0 0.0
2018-Jan-01 17:45N 29°45' W 095°10'0 0.0
2018-Jan-01 17:29N 29°45' W 095°10'0 0.0
2018-Jan-01 14:44N 29°45' W 095°10'0 0.0
2018-Jan-01 14:29N 29°45' W 095°10'0 0.0
2018-Jan-01 13:53N 29°45' W 095°10'0 0.0
2018-Jan-01 13:29N 29°45' W 095°10'0 0.0
2018-Jan-01 12:59N 29°45' W 095°10'0 0.0
2018-Jan-01 11:56N 29°45' W 095°10'0 0.0
2018-Jan-01 11:20N 29°45' W 095°10'0 0.0
2018-Jan-01 10:59N 29°45' W 095°10'0 0.0
2018-Jan-01 10:29N 29°45' W 095°10'0 0.0
2018-Jan-01 09:56N 29°45' W 095°10'0 0.0
2018-Jan-01 09:29N 29°45' W 095°10'0 0.0
2018-Jan-01 08:26N 29°45' W 095°10'0 0.0
2018-Jan-01 07:56N 29°45' W 095°10'0 0.0
2018-Jan-01 07:20N 29°45' W 095°10'0 0.0
2018-Jan-01 06:59N 29°45' W 095°10'0 0.0
2018-Jan-01 05:59N 29°45' W 095°10'0 0.0
2018-Jan-01 05:29N 29°45' W 095°10'0 0.0
2018-Jan-01 04:59N 29°45' W 095°10'0 0.0
2018-Jan-01 03:59N 29°45' W 095°10'0 0.0
2018-Jan-01 03:17N 29°45' W 095°10'0 0.0
2018-Jan-01 02:59N 29°45' W 095°10'0 0.0
2018-Jan-01 02:29N 29°45' W 095°10'0 0.0
2018-Jan-01 01:59N 29°45' W 095°10'0 0.0
2018-Jan-01 01:29N 29°45' W 095°10'0 0.0
2018-Jan-01 00:29N 29°45' W 095°10'0 0.0
2017-Dec-31 21:00N 29°45' W 095°10'0 0.0
2017-Dec-31 20:30N 29°45' W 095°10'0 0.0
2017-Dec-31 20:01N 29°45' W 095°10'0 0.0
2017-Dec-31 19:30N 29°45' W 095°10'0 0.0
2017-Dec-31 19:01N 29°45' W 095°10'0 0.0
2017-Dec-31 18:30N 29°45' W 095°10'0 0.0
2017-Dec-31 18:00N 29°45' W 095°10'0 0.0
2017-Dec-31 17:30N 29°45' W 095°10'0 0.0
2017-Dec-31 17:00N 29°45' W 095°10'0 0.0
2017-Dec-31 16:30N 29°45' W 095°10'0 0.0
2017-Dec-31 16:00N 29°45' W 095°10'0 0.0
2017-Dec-31 15:28N 29°45' W 095°10'0 0.4
2017-Dec-31 14:58N 29°45' W 095°10'0 0.0
2017-Dec-31 14:30N 29°45' W 095°10'0 0.3
2017-Dec-31 14:00N 29°45' W 095°10'0 0.1
2017-Dec-31 13:30N 29°45' W 095°10'0 0.0
2017-Dec-31 12:54N 29°45' W 095°10'0 0.1
2017-Dec-31 12:27N 29°45' W 095°10'0 0.0
2017-Dec-31 12:00N 29°45' W 095°10'0 0.0
2017-Dec-31 11:30N 29°45' W 095°10'0 0.0
2017-Dec-31 11:00N 29°45' W 095°10'0 0.0
2017-Dec-31 10:30N 29°45' W 095°10'0 0.0
2017-Dec-31 09:57N 29°45' W 095°10'0 0.0
2017-Dec-31 09:30N 29°45' W 095°10'0 0.0
2017-Dec-31 09:00N 29°45' W 095°10'0 0.0
2017-Dec-31 08:27N 29°45' W 095°10'0 0.0
2017-Dec-31 07:48N 29°45' W 095°10'0 0.0
2017-Dec-31 07:30N 29°45' W 095°10'0 0.0
2017-Dec-31 06:57N 29°45' W 095°10'0 0.0
2017-Dec-31 06:24N 29°45' W 095°10'0 0.0
2017-Dec-31 05:48N 29°45' W 095°10'0 0.0
2017-Dec-31 05:24N 29°45' W 095°10'0 0.0
2017-Dec-31 05:00N 29°45' W 095°10'0 0.0
2017-Dec-31 04:24N 29°45' W 095°10'0 0.0
2017-Dec-31 03:57N 29°45' W 095°10'0 0.0
2017-Dec-31 03:30N 29°45' W 095°10'0 0.0
2017-Dec-31 03:00N 29°45' W 095°10'0 0.0
2017-Dec-31 02:27N 29°45' W 095°10'0 0.0
2017-Dec-31 02:00N 29°45' W 095°10'0 0.0
2017-Dec-31 01:30N 29°45' W 095°10'0 0.0
2017-Dec-31 01:00N 29°45' W 095°10'0 0.0
2017-Dec-31 00:27N 29°45' W 095°10'0 0.0
2017-Dec-30 23:54N 29°45' W 095°10'0 0.0
2017-Dec-30 23:30N 29°45' W 095°10'0 0.0
2017-Dec-30 23:00N 29°45' W 095°10'0 0.0
2017-Dec-30 22:27N 29°45' W 095°10'0 0.0
2017-Dec-30 21:51N 29°45' W 095°10'0 0.0
2017-Dec-30 21:30N 29°45' W 095°10'0 0.0
2017-Dec-30 20:57N 29°45' W 095°10'0 0.0
2017-Dec-30 20:30N 29°45' W 095°10'0 0.0
2017-Dec-30 19:54N 29°45' W 095°10'0 0.0
2017-Dec-30 19:27N 29°45' W 095°10'0 0.0
2017-Dec-30 18:54N 29°45' W 095°10'0 0.0
2017-Dec-30 18:27N 29°45' W 095°10'0 0.0
2017-Dec-30 18:00N 29°45' W 095°10'0 0.0
2017-Dec-30 17:21N 29°45' W 095°10'0 0.0
2017-Dec-30 16:54N 29°45' W 095°10'0 0.0
2017-Dec-30 16:25N 29°45' W 095°10'0 0.0
2017-Dec-30 15:55N 29°45' W 095°10'0 0.0
2017-Dec-30 15:28N 29°45' W 095°10'0 0.0
2017-Dec-30 14:58N 29°45' W 095°10'0 0.0
2017-Dec-30 14:16N 29°45' W 095°10'0 0.0
2017-Dec-30 13:58N 29°45' W 095°10'0 0.0
2017-Dec-30 13:25N 29°45' W 095°10'0 0.0
2017-Dec-30 12:58N 29°45' W 095°10'0 0.0
2017-Dec-30 12:28N 29°45' W 095°10'0 0.0
2017-Dec-30 11:37N 29°45' W 095°10'0 0.0
2017-Dec-30 11:22N 29°45' W 095°10'0 0.0
2017-Dec-30 10:58N 29°45' W 095°10'0 0.0
2017-Dec-30 10:28N 29°45' W 095°10'0 0.0
2017-Dec-30 09:55N 29°45' W 095°10'0 0.0
2017-Dec-30 09:19N 29°45' W 095°10'0 0.0
2017-Dec-30 08:58N 29°45' W 095°10'0 0.0
2017-Dec-30 08:28N 29°45' W 095°10'0 0.0
2017-Dec-30 07:49N 29°45' W 095°10'0 0.0
2017-Dec-30 07:25N 29°45' W 095°10'0 0.0
2017-Dec-30 06:55N 29°45' W 095°10'0 0.0
2017-Dec-30 06:28N 29°45' W 095°10'0 0.0
2017-Dec-30 05:58N 29°45' W 095°10'0 0.0
2017-Dec-30 05:25N 29°45' W 095°10'0 0.0
2017-Dec-30 04:58N 29°45' W 095°10'0 0.0
2017-Dec-30 04:25N 29°45' W 095°10'0 0.0
2017-Dec-30 03:55N 29°45' W 095°10'0 0.0
2017-Dec-30 03:22N 29°45' W 095°10'0 0.0
2017-Dec-30 02:55N 29°45' W 095°10'0 0.0
2017-Dec-30 02:22N 29°45' W 095°10'0 0.0
2017-Dec-30 01:49N 29°45' W 095°10'0 0.0
2017-Dec-30 01:13N 29°45' W 095°10'0 0.0
2017-Dec-30 00:52N 29°45' W 095°10'0 0.0
2017-Dec-30 00:19N 29°45' W 095°10'0 0.0
2017-Dec-29 23:58N 29°45' W 095°10'0 0.0
2017-Dec-29 23:25N 29°45' W 095°10'0 0.0
2017-Dec-29 22:49N 29°45' W 095°10'0 0.0
2017-Dec-29 22:22N 29°45' W 095°10'0 0.0
2017-Dec-29 21:58N 29°45' W 095°10'0 0.0
2017-Dec-29 21:28N 29°45' W 095°10'0 0.0
2017-Dec-29 20:58N 29°45' W 095°10'0 0.0
2017-Dec-29 20:28N 29°45' W 095°10'0 0.0
2017-Dec-29 19:52N 29°45' W 095°10'0 0.0
2017-Dec-29 19:28N 29°45' W 095°10'0 0.0
2017-Dec-29 18:55N 29°45' W 095°10'0 0.0
2017-Dec-29 18:25N 29°45' W 095°10'0 0.0
2017-Dec-29 17:49N 29°45' W 095°10'0 0.0
2017-Dec-29 17:28N 29°45' W 095°10'0 0.0
2017-Dec-29 16:49N 29°45' W 095°10'0 0.0
2017-Dec-29 16:22N 29°45' W 095°10'0 0.0
2017-Dec-29 15:58N 29°45' W 095°10'0 0.0
2017-Dec-29 15:19N 29°45' W 095°10'0 0.0
2017-Dec-29 14:55N 29°45' W 095°10'0 0.0
2017-Dec-29 14:22N 29°45' W 095°10'0 0.0
2017-Dec-29 13:58N 29°45' W 095°10'0 0.0
2017-Dec-29 13:22N 29°45' W 095°10'0 0.0
2017-Dec-29 12:58N 29°45' W 095°10'0 0.0
2017-Dec-29 12:28N 29°45' W 095°10'0 0.0
2017-Dec-29 11:58N 29°45' W 095°10'0 0.0
2017-Dec-29 11:28N 29°45' W 095°10'0 0.0
2017-Dec-29 10:58N 29°45' W 095°10'0 0.2
2017-Dec-29 10:30N 29°45' W 095°10'0 0.3
2017-Dec-29 10:00N 29°45' W 095°10'1 2.2
2017-Dec-29 09:30N 29°45' W 095°12'1 3.0
2017-Dec-29 09:00N 29°43' W 095°13'1 1.9
2017-Dec-29 08:26N 29°43' W 095°14'0 0.1
2017-Dec-29 08:00N 29°43' W 095°14'0 0.1
2017-Dec-29 07:29N 29°43' W 095°14'0 0.6
2017-Dec-29 07:00N 29°43' W 095°14'0 0.3
2017-Dec-29 06:27N 29°43' W 095°14'0 0.0
2017-Dec-29 04:33N 29°43' W 095°14'0 0.0
2017-Dec-29 04:15N 29°43' W 095°14'0 0.0
2017-Dec-29 03:45N 29°43' W 095°14'0 0.0
2017-Dec-28 22:51N 29°43' W 095°14'0 0.0
2017-Dec-28 14:54N 29°43' W 095°14'0 0.3
2017-Dec-28 14:30N 29°43' W 095°14'1 0.7
2017-Dec-28 13:38N 29°43' W 095°13'0 0.4
2017-Dec-28 13:30N 29°43' W 095°13'1 0.1
2017-Dec-28 07:45N 29°43' W 095°14'0 0.0
2017-Dec-28 06:39N 29°43' W 095°14'0 0.0
2017-Dec-28 04:03N 29°43' W 095°14'0 0.0
2017-Dec-28 01:29N 29°43' W 095°14'1 1.1
2017-Dec-28 00:59N 29°44' W 095°13'0 0.1
2017-Dec-28 00:16N 29°43' W 095°13'0 0.2
2017-Dec-27 23:59N 29°43' W 095°13'0 0.1
2017-Dec-27 23:30N 29°44' W 095°13'3 6.1
2017-Dec-27 22:58N 29°45' W 095°10'3 6.7
2017-Dec-27 22:29N 29°45' W 095°06'3 1.3
2017-Dec-27 20:12N 29°47' W 095°04'1 2.6
2017-Dec-27 20:00N 29°47' W 095°04'3 5.4
2017-Dec-27 19:30N 29°45' W 095°06'3 5.6
2017-Dec-27 18:58N 29°45' W 095°10'0 0.5
2017-Dec-27 18:30N 29°44' W 095°10'0 0.0
2017-Dec-27 18:00N 29°44' W 095°10'0 0.0
2017-Dec-27 16:47N 29°44' W 095°10'  
Track history (hours):
 
Tides and Currents Weather Stations Pressure Air Temp Water Temp Dewpoint Dewpoint Depression Visibility Wind Speed Wind Dir Waves Ship Positions

Lucille Brooks

Owner: Kirby Inland Marine, LP, Houston, TX. More information available from US FCC via Universal Licensing System and Coast Guard Vessel Documentation Center.

Last reported at 2018-Jan-06 15:30 UTC. Time now 2018-Jan-19 07:52 UTC.
Position N 29°49' W 093°59'.
Warning: this ship's position is 12 days out of date.

Length 202 m; draft 3 m.

Type: . MMSI: 367024990.

Date/timePositionNaut miles runAvg speedWind from/ knotsBaromVisibWave heightAir tempDewpointWater temp
2018-Jan-06 15:30N 29°49' W 093°59'50 1.5
2018-Jan-05 06:31N 29°29' W 094°52'0 4.8
2018-Jan-05 06:26N 29°29' W 094°52'2 5.1
2018-Jan-05 06:00N 29°31' W 094°53'2 4.9
2018-Jan-05 05:30N 29°33' W 094°55'2 4.8
2018-Jan-05 05:00N 29°35' W 094°56'2 5.0
2018-Jan-05 04:30N 29°38' W 094°58'2 5.0
2018-Jan-05 04:00N 29°40' W 094°59'2 4.6
2018-Jan-05 03:30N 29°42' W 094°60'2 3.9
2018-Jan-05 02:56N 29°44' W 095°02'2 4.4
2018-Jan-05 02:25N 29°45' W 095°04'3 2.5
2018-Jan-05 01:21N 29°44' W 095°07'2 4.8
2018-Jan-05 01:00N 29°44' W 095°09'3 4.5
2018-Jan-05 00:25N 29°45' W 095°12'0 0.0
2018-Jan-03 16:01N 29°44' W 095°12'0 3.1
2018-Jan-03 15:59N 29°44' W 095°12'1 2.6
2018-Jan-03 15:27N 29°45' W 095°10'0 0.0
2018-Jan-03 14:59N 29°45' W 095°10'0 0.0
2018-Jan-03 14:27N 29°45' W 095°10'0 0.0
2018-Jan-03 13:57N 29°45' W 095°10'0 0.0
2018-Jan-03 13:30N 29°45' W 095°10'0 0.0
2018-Jan-03 13:00N 29°45' W 095°10'0 0.0
2018-Jan-03 12:30N 29°45' W 095°10'0 0.0
2018-Jan-03 11:51N 29°45' W 095°10'0 0.0
2018-Jan-03 11:21N 29°45' W 095°10'0 0.0
2018-Jan-03 11:00N 29°45' W 095°10'0 0.0
2018-Jan-03 10:15N 29°45' W 095°10'0 0.0
2018-Jan-03 09:54N 29°45' W 095°10'0 0.0
2018-Jan-03 09:24N 29°45' W 095°10'0 0.0
2018-Jan-03 08:51N 29°45' W 095°10'0 0.0
2018-Jan-03 08:09N 29°45' W 095°10'0 0.0
2018-Jan-03 08:00N 29°45' W 095°10'0 0.0
2018-Jan-03 07:27N 29°45' W 095°10'0 0.0
2018-Jan-03 06:57N 29°45' W 095°10'0 0.0
2018-Jan-03 06:21N 29°45' W 095°10'0 0.0
2018-Jan-03 05:45N 29°45' W 095°10'0 0.0
2018-Jan-03 05:09N 29°45' W 095°10'0 0.0
2018-Jan-03 05:00N 29°45' W 095°10'0 0.0
2018-Jan-03 04:30N 29°45' W 095°10'0 0.0
2018-Jan-03 03:54N 29°45' W 095°10'0 0.0
2018-Jan-03 03:30N 29°45' W 095°10'0 0.0
2018-Jan-03 03:00N 29°45' W 095°10'0 0.0
2018-Jan-03 02:27N 29°45' W 095°10'0 0.0
2018-Jan-03 02:00N 29°45' W 095°10'0 0.0
2018-Jan-03 01:21N 29°45' W 095°10'0 0.0
2018-Jan-03 00:54N 29°45' W 095°10'0 0.0
2018-Jan-03 00:27N 29°45' W 095°10'0 0.0
2018-Jan-03 00:00N 29°45' W 095°10'0 0.0
2018-Jan-02 23:15N 29°45' W 095°10'0 0.0
2018-Jan-02 22:48N 29°45' W 095°10'0 0.0
2018-Jan-02 22:21N 29°45' W 095°10'0 0.0
2018-Jan-02 21:45N 29°45' W 095°10'0 0.0
2018-Jan-02 17:09N 29°45' W 095°10'0 0.0
2018-Jan-02 16:45N 29°45' W 095°10'0 0.0
2018-Jan-02 15:54N 29°45' W 095°10'0 0.0
2018-Jan-02 15:24N 29°45' W 095°10'0 0.0
2018-Jan-02 14:42N 29°45' W 095°10'0 0.0
2018-Jan-02 14:30N 29°45' W 095°10'0 0.0
2018-Jan-02 14:00N 29°45' W 095°10'0 0.0
2018-Jan-02 13:27N 29°45' W 095°10'0 0.0
2018-Jan-02 12:57N 29°45' W 095°10'0 0.0
2018-Jan-02 12:30N 29°45' W 095°10'0 0.0
2018-Jan-02 12:00N 29°45' W 095°10'0 0.0
2018-Jan-02 11:30N 29°45' W 095°10'0 0.0
2018-Jan-02 11:00N 29°45' W 095°10'0 0.0
2018-Jan-02 10:00N 29°45' W 095°10'0 0.0
2018-Jan-02 09:27N 29°45' W 095°10'0 0.0
2018-Jan-02 07:54N 29°45' W 095°10'0 0.0
2018-Jan-02 05:45N 29°45' W 095°10'0 0.0
2018-Jan-02 04:30N 29°45' W 095°10'0 0.0
2018-Jan-02 02:27N 29°45' W 095°10'0 0.0
2018-Jan-02 01:54N 29°45' W 095°10'0 0.0
2018-Jan-02 01:21N 29°45' W 095°10'0 0.0
2018-Jan-02 00:33N 29°45' W 095°10'0 0.0
2018-Jan-02 00:30N 29°45' W 095°10'0 0.0
2018-Jan-01 23:48N 29°45' W 095°10'0 0.0
2018-Jan-01 23:30N 29°45' W 095°10'0 0.0
2018-Jan-01 20:21N 29°45' W 095°10'0 0.0
2018-Jan-01 19:57N 29°45' W 095°10'0 0.0
2018-Jan-01 19:30N 29°45' W 095°10'0 0.0
2018-Jan-01 19:00N 29°45' W 095°10'0 0.0
2018-Jan-01 18:30N 29°45' W 095°10'0 0.0
2018-Jan-01 17:45N 29°45' W 095°10'0 0.0
2018-Jan-01 17:29N 29°45' W 095°10'0 0.0
2018-Jan-01 14:44N 29°45' W 095°10'0 0.0
2018-Jan-01 14:29N 29°45' W 095°10'0 0.0
2018-Jan-01 13:53N 29°45' W 095°10'0 0.0
2018-Jan-01 13:29N 29°45' W 095°10'0 0.0
2018-Jan-01 12:59N 29°45' W 095°10'0 0.0
2018-Jan-01 11:56N 29°45' W 095°10'0 0.0
2018-Jan-01 11:20N 29°45' W 095°10'0 0.0
2018-Jan-01 10:59N 29°45' W 095°10'0 0.0
2018-Jan-01 10:29N 29°45' W 095°10'0 0.0
2018-Jan-01 09:56N 29°45' W 095°10'0 0.0
2018-Jan-01 09:29N 29°45' W 095°10'0 0.0
2018-Jan-01 08:26N 29°45' W 095°10'0 0.0
2018-Jan-01 07:56N 29°45' W 095°10'0 0.0
2018-Jan-01 07:20N 29°45' W 095°10'0 0.0
2018-Jan-01 06:59N 29°45' W 095°10'0 0.0
2018-Jan-01 05:59N 29°45' W 095°10'0 0.0
2018-Jan-01 05:29N 29°45' W 095°10'0 0.0
2018-Jan-01 04:59N 29°45' W 095°10'0 0.0
2018-Jan-01 03:59N 29°45' W 095°10'0 0.0
2018-Jan-01 03:17N 29°45' W 095°10'0 0.0
2018-Jan-01 02:59N 29°45' W 095°10'0 0.0
2018-Jan-01 02:29N 29°45' W 095°10'0 0.0
2018-Jan-01 01:59N 29°45' W 095°10'0 0.0
2018-Jan-01 01:29N 29°45' W 095°10'0 0.0
2018-Jan-01 00:29N 29°45' W 095°10'0 0.0
2017-Dec-31 21:00N 29°45' W 095°10'0 0.0
2017-Dec-31 20:30N 29°45' W 095°10'0 0.0
2017-Dec-31 20:01N 29°45' W 095°10'0 0.0
2017-Dec-31 19:30N 29°45' W 095°10'0 0.0
2017-Dec-31 19:01N 29°45' W 095°10'0 0.0
2017-Dec-31 18:30N 29°45' W 095°10'0 0.0
2017-Dec-31 18:00N 29°45' W 095°10'0 0.0
2017-Dec-31 17:30N 29°45' W 095°10'0 0.0
2017-Dec-31 17:00N 29°45' W 095°10'0 0.0
2017-Dec-31 16:30N 29°45' W 095°10'0 0.0
2017-Dec-31 16:00N 29°45' W 095°10'0 0.0
2017-Dec-31 15:28N 29°45' W 095°10'0 0.4
2017-Dec-31 14:58N 29°45' W 095°10'0 0.0
2017-Dec-31 14:30N 29°45' W 095°10'0 0.3
2017-Dec-31 14:00N 29°45' W 095°10'0 0.1
2017-Dec-31 13:30N 29°45' W 095°10'0 0.0
2017-Dec-31 12:54N 29°45' W 095°10'0 0.1
2017-Dec-31 12:27N 29°45' W 095°10'0 0.0
2017-Dec-31 12:00N 29°45' W 095°10'0 0.0
2017-Dec-31 11:30N 29°45' W 095°10'0 0.0
2017-Dec-31 11:00N 29°45' W 095°10'0 0.0
2017-Dec-31 10:30N 29°45' W 095°10'0 0.0
2017-Dec-31 09:57N 29°45' W 095°10'0 0.0
2017-Dec-31 09:30N 29°45' W 095°10'0 0.0
2017-Dec-31 09:00N 29°45' W 095°10'0 0.0
2017-Dec-31 08:27N 29°45' W 095°10'0 0.0
2017-Dec-31 07:48N 29°45' W 095°10'0 0.0
2017-Dec-31 07:30N 29°45' W 095°10'0 0.0
2017-Dec-31 06:57N 29°45' W 095°10'0 0.0
2017-Dec-31 06:24N 29°45' W 095°10'0 0.0
2017-Dec-31 05:48N 29°45' W 095°10'0 0.0
2017-Dec-31 05:24N 29°45' W 095°10'0 0.0
2017-Dec-31 05:00N 29°45' W 095°10'0 0.0
2017-Dec-31 04:24N 29°45' W 095°10'0 0.0
2017-Dec-31 03:57N 29°45' W 095°10'0 0.0
2017-Dec-31 03:30N 29°45' W 095°10'0 0.0
2017-Dec-31 03:00N 29°45' W 095°10'0 0.0
2017-Dec-31 02:27N 29°45' W 095°10'0 0.0
2017-Dec-31 02:00N 29°45' W 095°10'0 0.0
2017-Dec-31 01:30N 29°45' W 095°10'0 0.0
2017-Dec-31 01:00N 29°45' W 095°10'0 0.0
2017-Dec-31 00:27N 29°45' W 095°10'0 0.0
2017-Dec-30 23:54N 29°45' W 095°10'0 0.0
2017-Dec-30 23:30N 29°45' W 095°10'0 0.0
2017-Dec-30 23:00N 29°45' W 095°10'0 0.0
2017-Dec-30 22:27N 29°45' W 095°10'0 0.0
2017-Dec-30 21:51N 29°45' W 095°10'0 0.0
2017-Dec-30 21:30N 29°45' W 095°10'0 0.0
2017-Dec-30 20:57N 29°45' W 095°10'0 0.0
2017-Dec-30 20:30N 29°45' W 095°10'0 0.0
2017-Dec-30 19:54N 29°45' W 095°10'0 0.0
2017-Dec-30 19:27N 29°45' W 095°10'0 0.0
2017-Dec-30 18:54N 29°45' W 095°10'0 0.0
2017-Dec-30 18:27N 29°45' W 095°10'0 0.0
2017-Dec-30 18:00N 29°45' W 095°10'0 0.0
2017-Dec-30 17:21N 29°45' W 095°10'0 0.0
2017-Dec-30 16:54N 29°45' W 095°10'0 0.0
2017-Dec-30 16:25N 29°45' W 095°10'0 0.0
2017-Dec-30 15:55N 29°45' W 095°10'0 0.0
2017-Dec-30 15:28N 29°45' W 095°10'0 0.0
2017-Dec-30 14:58N 29°45' W 095°10'0 0.0
2017-Dec-30 14:16N 29°45' W 095°10'0 0.0
2017-Dec-30 13:58N 29°45' W 095°10'0 0.0
2017-Dec-30 13:25N 29°45' W 095°10'0 0.0
2017-Dec-30 12:58N 29°45' W 095°10'0 0.0
2017-Dec-30 12:28N 29°45' W 095°10'0 0.0
2017-Dec-30 11:37N 29°45' W 095°10'0 0.0
2017-Dec-30 11:22N 29°45' W 095°10'0 0.0
2017-Dec-30 10:58N 29°45' W 095°10'0 0.0
2017-Dec-30 10:28N 29°45' W 095°10'0 0.0
2017-Dec-30 09:55N 29°45' W 095°10'0 0.0
2017-Dec-30 09:19N 29°45' W 095°10'0 0.0
2017-Dec-30 08:58N 29°45' W 095°10'0 0.0
2017-Dec-30 08:28N 29°45' W 095°10'0 0.0
2017-Dec-30 07:49N 29°45' W 095°10'0 0.0
2017-Dec-30 07:25N 29°45' W 095°10'0 0.0
2017-Dec-30 06:55N 29°45' W 095°10'0 0.0
2017-Dec-30 06:28N 29°45' W 095°10'0 0.0
2017-Dec-30 05:58N 29°45' W 095°10'0 0.0
2017-Dec-30 05:25N 29°45' W 095°10'0 0.0
2017-Dec-30 04:58N 29°45' W 095°10'0 0.0
2017-Dec-30 04:25N 29°45' W 095°10'0 0.0
2017-Dec-30 03:55N 29°45' W 095°10'0 0.0
2017-Dec-30 03:22N 29°45' W 095°10'0 0.0
2017-Dec-30 02:55N 29°45' W 095°10'0 0.0
2017-Dec-30 02:22N 29°45' W 095°10'0 0.0
2017-Dec-30 01:49N 29°45' W 095°10'0 0.0
2017-Dec-30 01:13N 29°45' W 095°10'0 0.0
2017-Dec-30 00:52N 29°45' W 095°10'0 0.0
2017-Dec-30 00:19N 29°45' W 095°10'0 0.0
2017-Dec-29 23:58N 29°45' W 095°10'0 0.0
2017-Dec-29 23:25N 29°45' W 095°10'0 0.0
2017-Dec-29 22:49N 29°45' W 095°10'0 0.0
2017-Dec-29 22:22N 29°45' W 095°10'0 0.0
2017-Dec-29 21:58N 29°45' W 095°10'0 0.0
2017-Dec-29 21:28N 29°45' W 095°10'0 0.0
2017-Dec-29 20:58N 29°45' W 095°10'0 0.0
2017-Dec-29 20:28N 29°45' W 095°10'0 0.0
2017-Dec-29 19:52N 29°45' W 095°10'0 0.0
2017-Dec-29 19:28N 29°45' W 095°10'0 0.0
2017-Dec-29 18:55N 29°45' W 095°10'0 0.0
2017-Dec-29 18:25N 29°45' W 095°10'0 0.0
2017-Dec-29 17:49N 29°45' W 095°10'0 0.0
2017-Dec-29 17:28N 29°45' W 095°10'0 0.0
2017-Dec-29 16:49N 29°45' W 095°10'0 0.0
2017-Dec-29 16:22N 29°45' W 095°10'0 0.0
2017-Dec-29 15:58N 29°45' W 095°10'0 0.0
2017-Dec-29 15:19N 29°45' W 095°10'0 0.0
2017-Dec-29 14:55N 29°45' W 095°10'0 0.0
2017-Dec-29 14:22N 29°45' W 095°10'0 0.0
2017-Dec-29 13:58N 29°45' W 095°10'0 0.0
2017-Dec-29 13:22N 29°45' W 095°10'0 0.0
2017-Dec-29 12:58N 29°45' W 095°10'0 0.0
2017-Dec-29 12:28N 29°45' W 095°10'0 0.0
2017-Dec-29 11:58N 29°45' W 095°10'0 0.0
2017-Dec-29 11:28N 29°45' W 095°10'0 0.0
2017-Dec-29 10:58N 29°45' W 095°10'0 0.2
2017-Dec-29 10:30N 29°45' W 095°10'0 0.3
2017-Dec-29 10:00N 29°45' W 095°10'1 2.2
2017-Dec-29 09:30N 29°45' W 095°12'1 3.0
2017-Dec-29 09:00N 29°43' W 095°13'1 1.9
2017-Dec-29 08:26N 29°43' W 095°14'0 0.1
2017-Dec-29 08:00N 29°43' W 095°14'0 0.1
2017-Dec-29 07:29N 29°43' W 095°14'0 0.6
2017-Dec-29 07:00N 29°43' W 095°14'0 0.3
2017-Dec-29 06:27N 29°43' W 095°14'0 0.0
2017-Dec-29 04:33N 29°43' W 095°14'0 0.0
2017-Dec-29 04:15N 29°43' W 095°14'0 0.0
2017-Dec-29 03:45N 29°43' W 095°14'0 0.0
2017-Dec-28 22:51N 29°43' W 095°14'0 0.0
2017-Dec-28 14:54N 29°43' W 095°14'0 0.3
2017-Dec-28 14:30N 29°43' W 095°14'1 0.7
2017-Dec-28 13:38N 29°43' W 095°13'0 0.4
2017-Dec-28 13:30N 29°43' W 095°13'1 0.1
2017-Dec-28 07:45N 29°43' W 095°14'0 0.0
2017-Dec-28 06:39N 29°43' W 095°14'0 0.0
2017-Dec-28 04:03N 29°43' W 095°14'0 0.0
2017-Dec-28 01:29N 29°43' W 095°14'1 1.1
2017-Dec-28 00:59N 29°44' W 095°13'0 0.1
2017-Dec-28 00:16N 29°43' W 095°13'0 0.2
2017-Dec-27 23:59N 29°43' W 095°13'0 0.1
2017-Dec-27 23:30N 29°44' W 095°13'3 6.1
2017-Dec-27 22:58N 29°45' W 095°10'3 6.7
2017-Dec-27 22:29N 29°45' W 095°06'3 1.3
2017-Dec-27 20:12N 29°47' W 095°04'1 2.6
2017-Dec-27 20:00N 29°47' W 095°04'3 5.4
2017-Dec-27 19:30N 29°45' W 095°06'3 5.6
2017-Dec-27 18:58N 29°45' W 095°10'0 0.5
2017-Dec-27 18:30N 29°44' W 095°10'0 0.0
2017-Dec-27 18:00N 29°44' W 095°10'0 0.0
2017-Dec-27 16:47N 29°44' W 095°10'  

Dump ship's entire track history